createdAt,value
2023-05-21T00:01:05.705Z,9.33
2023-05-21T00:04:09.011Z,10.10
2023-05-21T00:07:12.649Z,9.23
2023-05-21T00:10:16.015Z,9.40
2023-05-21T00:13:20.650Z,9.23
2023-05-21T00:16:24.158Z,9.87
2023-05-21T00:19:27.973Z,10.53
2023-05-21T00:22:33.662Z,9.20
2023-05-21T00:25:37.203Z,10.03
2023-05-21T00:28:41.872Z,9.90
2023-05-21T00:31:45.145Z,9.57
2023-05-21T00:34:48.393Z,7.70
2023-05-21T00:37:52.029Z,9.13
2023-05-21T00:40:55.323Z,8.57
2023-05-21T00:44:00.360Z,9.87
2023-05-21T00:47:03.830Z,8.60
2023-05-21T00:50:07.978Z,8.87
2023-05-21T00:53:11.271Z,9.57
2023-05-21T00:56:14.635Z,9.30
2023-05-21T00:59:19.478Z,8.43
2023-05-21T01:02:24.353Z,9.03
2023-05-21T01:05:28.473Z,8.27
2023-05-21T01:08:31.816Z,7.47
2023-05-21T01:11:39.806Z,8.50
2023-05-21T01:14:44.998Z,8.50
2023-05-21T01:17:51.490Z,8.67
2023-05-21T01:20:55.168Z,8.27
2023-05-21T01:23:59.781Z,8.07
2023-05-21T01:27:06.564Z,7.47
2023-05-21T01:30:10.687Z,8.27
2023-05-21T01:33:17.300Z,8.23
2023-05-21T01:36:24.066Z,7.80
2023-05-21T01:39:29.839Z,8.07
2023-05-21T01:42:33.897Z,8.37
2023-05-21T01:45:38.381Z,8.40
2023-05-21T01:48:43.465Z,8.63
2023-05-21T01:51:46.911Z,8.30
2023-05-21T01:54:51.466Z,7.73
2023-05-21T01:57:55.264Z,7.83
2023-05-21T02:00:58.497Z,7.63
2023-05-21T02:04:02.011Z,7.20
2023-05-21T02:07:05.354Z,7.97
2023-05-21T02:10:10.570Z,7.73
2023-05-21T02:13:13.816Z,8.03
2023-05-21T02:16:17.224Z,7.50
2023-05-21T02:19:20.705Z,8.27
2023-05-21T02:22:24.004Z,8.53
2023-05-21T02:25:28.624Z,8.17
2023-05-21T02:28:32.701Z,7.63
2023-05-21T02:31:35.965Z,8.10
2023-05-21T02:34:42.294Z,7.33
2023-05-21T02:37:45.575Z,8.37
2023-05-21T02:40:50.676Z,7.97
2023-05-21T02:43:53.904Z,7.97
2023-05-21T02:46:57.122Z,8.00
2023-05-21T02:50:02.789Z,8.10
2023-05-21T02:53:06.225Z,8.13
2023-05-21T02:56:12.470Z,8.27
2023-05-21T02:59:15.762Z,8.10
2023-05-21T03:02:19.197Z,7.87
2023-05-21T03:05:22.711Z,8.27
2023-05-21T03:08:26.448Z,7.70
2023-05-21T03:11:31.004Z,8.30
2023-05-21T03:14:35.408Z,8.27
2023-05-21T03:17:38.926Z,8.00
2023-05-21T03:20:44.321Z,7.93
2023-05-21T03:23:47.752Z,8.00
2023-05-21T03:26:52.482Z,8.40
2023-05-21T03:29:56.038Z,8.43
2023-05-21T03:32:59.845Z,7.90
2023-05-21T03:36:03.152Z,8.00
2023-05-21T03:39:06.900Z,7.43
2023-05-21T03:42:13.278Z,8.20
2023-05-21T03:45:16.510Z,11.13
2023-05-21T03:48:19.754Z,8.10
2023-05-21T03:51:22.989Z,8.17
2023-05-21T03:54:26.250Z,8.30
2023-05-21T03:57:30.927Z,7.37
2023-05-21T04:00:34.520Z,7.07
2023-05-21T04:03:40.101Z,7.90
2023-05-21T04:06:44.175Z,8.10
2023-05-21T04:09:47.416Z,7.63
2023-05-21T04:12:52.350Z,8.40
2023-05-21T04:15:55.771Z,8.40
2023-05-21T04:18:59.012Z,7.83
2023-05-21T04:22:03.090Z,8.57
2023-05-21T04:25:06.644Z,8.37
2023-05-21T04:28:11.197Z,7.47
2023-05-21T04:31:14.493Z,8.07
2023-05-21T04:34:18.845Z,7.27
2023-05-21T04:37:24.574Z,8.80
2023-05-21T04:40:27.824Z,10.40
2023-05-21T04:43:32.386Z,7.43
2023-05-21T04:46:35.838Z,7.97
2023-05-21T04:49:39.141Z,7.77
2023-05-21T04:52:42.437Z,8.10
2023-05-21T04:55:46.997Z,8.10
2023-05-21T04:58:51.574Z,7.87
2023-05-21T05:01:54.871Z,7.87
2023-05-21T05:04:59.833Z,9.00
2023-05-21T05:08:04.070Z,7.73
2023-05-21T05:11:07.310Z,7.37
2023-05-21T05:14:11.853Z,7.87
2023-05-21T05:17:15.673Z,7.10
2023-05-21T05:20:19.042Z,7.60
2023-05-21T05:23:22.259Z,7.63
2023-05-21T05:26:25.496Z,8.20
2023-05-21T05:29:30.099Z,8.23
2023-05-21T05:32:33.399Z,8.23
2023-05-21T05:35:37.023Z,8.10
2023-05-21T05:38:40.690Z,7.33
2023-05-21T05:41:43.911Z,6.90
2023-05-21T05:44:48.484Z,7.67
2023-05-21T05:47:51.722Z,7.40
2023-05-21T05:50:56.980Z,6.87
2023-05-21T05:54:00.218Z,7.93
2023-05-21T05:57:03.534Z,8.17
2023-05-21T06:00:10.461Z,7.80
2023-05-21T06:03:13.996Z,8.07
2023-05-21T06:06:17.985Z,8.00
2023-05-21T06:09:22.080Z,6.70
2023-05-21T06:12:25.282Z,7.00
2023-05-21T06:15:29.959Z,7.80
2023-05-21T06:18:33.216Z,7.67
2023-05-21T06:21:36.500Z,7.47
2023-05-21T06:24:39.746Z,7.67
2023-05-21T06:27:42.987Z,6.83
2023-05-21T06:30:47.617Z,7.50
2023-05-21T06:33:51.161Z,8.77
2023-05-21T06:36:54.575Z,7.23
2023-05-21T06:39:57.838Z,6.90
2023-05-21T06:43:01.037Z,6.43
2023-05-21T06:46:05.577Z,7.00
2023-05-21T06:49:08.814Z,6.80
2023-05-21T06:52:12.186Z,6.37
2023-05-21T06:55:15.384Z,6.97
2023-05-21T06:58:18.608Z,9.07
2023-05-21T07:01:23.324Z,7.47
2023-05-21T07:04:26.651Z,7.47
2023-05-21T07:07:29.869Z,7.07
2023-05-21T07:10:33.087Z,6.77
2023-05-21T07:13:36.806Z,7.67
2023-05-21T07:16:41.427Z,6.97
2023-05-21T07:19:44.749Z,6.70
2023-05-21T07:22:47.971Z,6.27
2023-05-21T07:25:51.230Z,6.33
2023-05-21T07:28:54.455Z,7.20
2023-05-21T07:31:59.263Z,6.53
2023-05-21T07:35:02.959Z,6.03
2023-05-21T07:38:06.263Z,6.47
2023-05-21T07:41:09.562Z,6.33
2023-05-21T07:44:12.766Z,6.63
2023-05-21T07:47:17.301Z,6.83
2023-05-21T07:50:20.514Z,6.70
2023-05-21T07:53:24.034Z,6.47
2023-05-21T07:56:27.246Z,6.30
2023-05-21T07:59:30.868Z,6.63
2023-05-21T08:02:35.738Z,6.10
2023-05-21T08:05:39.383Z,6.47
2023-05-21T08:08:42.709Z,7.10
2023-05-21T08:11:45.951Z,6.03
2023-05-21T08:14:49.179Z,6.40
2023-05-21T08:17:53.791Z,6.65
2023-05-21T08:20:57.067Z,6.63
2023-05-21T08:24:02.707Z,5.95
2023-05-21T08:27:06.460Z,6.05
2023-05-21T08:30:11.432Z,6.35
2023-05-21T08:33:16.040Z,6.72
2023-05-21T08:36:19.784Z,5.82
2023-05-21T08:39:22.994Z,6.78
2023-05-21T08:45:41.512Z,6.25
2023-05-21T08:48:46.236Z,5.57
2023-05-21T08:51:50.238Z,7.07
2023-05-21T08:54:54.128Z,6.55
2023-05-21T08:57:57.330Z,7.38
2023-05-21T09:01:00.651Z,6.60
2023-05-21T09:04:19.593Z,6.47
2023-05-21T09:07:24.106Z,6.72
2023-05-21T09:10:30.833Z,7.13
2023-05-21T09:13:34.454Z,7.00
2023-05-21T09:16:38.645Z,7.30
2023-05-21T09:20:07.502Z,6.85
2023-05-21T09:23:12.510Z,6.63
2023-05-21T09:26:15.741Z,7.90
2023-05-21T09:29:18.975Z,7.55
2023-05-21T09:32:22.234Z,8.27
2023-05-21T09:35:26.797Z,8.48
2023-05-21T09:38:30.418Z,7.03
2023-05-21T09:41:34.924Z,6.28
2023-05-21T09:44:38.131Z,6.35
2023-05-21T09:47:44.761Z,6.63
2023-05-21T09:50:49.484Z,6.78
2023-05-21T09:53:53.403Z,6.72
2023-05-21T09:56:56.723Z,6.68
2023-05-21T10:00:00.020Z,7.60
2023-05-21T10:03:03.679Z,6.38
2023-05-21T10:06:09.990Z,6.85
2023-05-21T10:09:13.529Z,7.13
2023-05-21T10:12:19.923Z,7.57
2023-05-21T10:15:25.327Z,6.00
2023-05-21T10:18:29.115Z,7.88
2023-05-21T10:21:34.794Z,7.68
2023-05-21T10:24:38.811Z,7.05
2023-05-21T10:27:43.224Z,6.65
2023-05-21T10:30:46.484Z,6.60
2023-05-21T10:33:50.328Z,6.00
2023-05-21T10:36:57.264Z,6.75
2023-05-21T10:40:00.585Z,7.05
2023-05-21T10:43:21.920Z,8.02
2023-05-21T10:46:43.898Z,6.85
2023-05-21T10:49:58.002Z,6.20
2023-05-21T10:53:09.935Z,5.63
2023-05-21T10:56:19.260Z,5.68
2023-05-21T10:59:28.680Z,6.03
2023-05-21T11:02:32.040Z,18.00
2023-05-21T11:05:42.380Z,5.72
2023-05-21T11:08:49.311Z,6.30
2023-05-21T11:11:53.187Z,5.97
2023-05-21T11:14:59.919Z,5.88
2023-05-21T11:18:03.223Z,5.82
2023-05-21T11:21:06.899Z,6.22
2023-05-21T11:24:20.054Z,6.53
2023-05-21T11:27:34.318Z,5.57
2023-05-21T11:30:38.978Z,5.72
2023-05-21T11:33:44.203Z,5.65
2023-05-21T11:36:47.935Z,5.53
2023-05-21T11:39:53.112Z,5.85
2023-05-21T11:42:57.064Z,6.10
2023-05-21T11:46:28.991Z,6.38
2023-05-21T11:49:32.483Z,6.47
2023-05-21T11:52:35.796Z,7.07
2023-05-21T11:55:43.508Z,6.53
2023-05-21T11:58:47.231Z,7.85
2023-05-21T12:01:51.770Z,6.57
2023-05-21T12:04:55.835Z,6.50
2023-05-21T12:07:59.044Z,7.80
2023-05-21T12:11:02.710Z,7.82
2023-05-21T12:14:08.433Z,11.63
2023-05-21T12:17:13.972Z,13.77
2023-05-21T12:20:17.458Z,7.43
2023-05-21T12:23:21.562Z,7.50
2023-05-21T12:26:26.411Z,6.82
2023-05-21T12:29:30.179Z,7.00
2023-05-21T12:32:34.906Z,8.15
2023-05-21T12:35:38.959Z,8.55
2023-05-21T12:38:42.280Z,8.57
2023-05-21T12:41:45.531Z,6.00
2023-05-21T12:44:49.801Z,7.10
2023-05-21T12:47:56.293Z,6.18
2023-05-21T12:51:00.716Z,6.75
2023-05-21T12:54:03.952Z,6.55
2023-05-21T12:57:19.598Z,6.07
2023-05-21T13:00:25.307Z,6.53
2023-05-21T13:03:29.944Z,5.55
2023-05-21T13:06:43.049Z,6.45
2023-05-21T13:09:46.282Z,6.57
2023-05-21T13:12:49.496Z,7.50
2023-05-21T13:15:54.606Z,11.85
2023-05-21T13:18:59.221Z,6.68
2023-05-21T13:22:02.460Z,7.10
2023-05-21T13:25:05.938Z,5.45
2023-05-21T13:28:10.403Z,5.85
2023-05-21T13:31:15.560Z,5.70
2023-05-21T13:34:20.282Z,6.30
2023-05-21T13:37:23.485Z,6.05
2023-05-21T13:40:26.721Z,6.43
2023-05-21T13:43:30.021Z,5.90
2023-05-21T13:46:33.313Z,6.13
2023-05-21T13:49:38.207Z,6.35
2023-05-21T13:52:41.573Z,6.20
2023-05-21T13:55:45.456Z,6.18
2023-05-21T13:58:48.673Z,6.22
2023-05-21T14:01:52.397Z,5.88
2023-05-21T14:04:56.997Z,6.57
2023-05-21T14:08:00.522Z,5.93
2023-05-21T14:11:04.965Z,5.72
2023-05-21T14:14:08.324Z,5.50
2023-05-21T14:17:11.560Z,5.93
2023-05-21T14:20:16.186Z,5.82
2023-05-21T14:23:19.404Z,5.50
2023-05-21T14:26:22.670Z,6.07
2023-05-21T14:29:25.954Z,5.53
2023-05-21T14:32:29.296Z,5.75
2023-05-21T14:35:33.992Z,5.72
2023-05-21T14:38:37.282Z,6.10
2023-05-21T14:41:40.845Z,6.07
2023-05-21T14:44:44.062Z,5.20
2023-05-21T14:47:48.661Z,6.47
2023-05-21T14:50:53.432Z,5.22
2023-05-21T14:53:57.612Z,6.32
2023-05-21T14:57:00.920Z,7.15
2023-05-21T15:00:04.196Z,5.22
2023-05-21T15:03:07.494Z,6.30
2023-05-21T15:06:12.154Z,5.90
2023-05-21T15:09:15.410Z,6.63
2023-05-21T15:12:18.636Z,4.80
2023-05-21T15:15:21.952Z,5.65
2023-05-21T15:18:25.430Z,5.55
2023-05-21T15:21:29.996Z,5.97
2023-05-21T15:24:33.254Z,6.32
2023-05-21T15:27:36.807Z,5.57
2023-05-21T15:30:40.057Z,5.65
2023-05-21T15:33:43.273Z,6.35
2023-05-21T15:36:47.833Z,5.82
2023-05-21T15:39:51.054Z,5.80
2023-05-21T15:42:54.387Z,6.32
2023-05-21T15:45:57.687Z,5.57
2023-05-21T15:49:00.916Z,4.40
2023-05-21T15:52:05.630Z,5.72
2023-05-21T15:55:09.160Z,5.43
2023-05-21T15:58:12.482Z,6.28
2023-05-21T16:01:15.764Z,6.10
2023-05-21T16:04:20.171Z,5.90
2023-05-21T16:07:25.122Z,5.35
2023-05-21T16:10:28.403Z,6.53
2023-05-21T16:13:31.619Z,5.22
2023-05-21T16:16:35.789Z,4.80
2023-05-21T16:19:39.099Z,5.93
2023-05-21T16:22:43.683Z,5.03
2023-05-21T16:25:46.916Z,5.97
2023-05-21T16:28:50.184Z,6.18
2023-05-21T16:31:53.470Z,5.07
2023-05-21T16:34:56.782Z,4.93
2023-05-21T16:38:01.692Z,5.57
2023-05-21T16:41:04.994Z,5.40
2023-05-21T16:44:08.208Z,5.53
2023-05-21T16:47:11.497Z,5.93
2023-05-21T16:50:14.736Z,5.00
2023-05-21T16:53:19.311Z,5.07
2023-05-21T16:56:22.898Z,4.85
2023-05-21T16:59:26.138Z,4.65
2023-05-21T17:02:29.490Z,5.65
2023-05-21T17:05:32.798Z,5.32
2023-05-21T17:08:37.362Z,5.07
2023-05-21T17:11:43.565Z,4.80
2023-05-21T17:14:46.812Z,6.22
2023-05-21T17:17:50.038Z,5.88
2023-05-21T17:20:53.298Z,6.90
2023-05-21T17:23:57.836Z,6.10
2023-05-21T17:27:01.073Z,5.32
2023-05-21T17:30:04.826Z,5.57
2023-05-21T17:33:10.261Z,5.38
2023-05-21T17:36:14.403Z,4.72
2023-05-21T17:39:18.964Z,6.15
2023-05-21T17:42:22.323Z,5.82
2023-05-21T17:45:25.541Z,6.05
2023-05-21T17:48:28.752Z,6.22
2023-05-21T17:51:31.994Z,10.60
2023-05-21T17:54:36.559Z,7.15
2023-05-21T17:57:39.824Z,7.43
2023-05-21T18:00:43.090Z,5.95
2023-05-21T18:03:46.433Z,6.35
2023-05-21T18:06:49.724Z,6.97
2023-05-21T18:09:54.292Z,6.55
2023-05-21T18:12:57.546Z,6.80
2023-05-21T18:16:00.785Z,6.68
2023-05-21T18:19:05.806Z,6.78
2023-05-21T18:22:09.584Z,7.00
2023-05-21T18:25:14.247Z,6.22
2023-05-21T18:28:17.453Z,7.88
2023-05-21T18:31:20.813Z,7.40
2023-05-21T18:34:24.028Z,8.32
2023-05-21T18:37:27.797Z,8.52
2023-05-21T18:40:33.211Z,7.55
2023-05-21T18:43:36.933Z,7.32
2023-05-21T18:46:40.162Z,7.60
2023-05-21T18:49:43.448Z,7.43
2023-05-21T18:52:46.995Z,7.90
2023-05-21T18:55:51.555Z,8.32
2023-05-21T18:58:54.768Z,8.02
2023-05-21T19:01:58.063Z,7.80
2023-05-21T19:05:01.835Z,7.38
2023-05-21T19:08:05.248Z,8.15
2023-05-21T19:11:09.842Z,8.40
2023-05-21T19:14:13.111Z,7.95
2023-05-21T19:17:16.408Z,8.18
2023-05-21T19:20:24.334Z,12.25
2023-05-21T19:23:27.971Z,8.88
2023-05-21T19:26:32.931Z,8.80
2023-05-21T19:29:36.222Z,8.90
2023-05-21T19:32:39.440Z,9.23
2023-05-21T19:35:43.327Z,9.80
2023-05-21T19:38:49.579Z,10.55
2023-05-21T19:41:54.146Z,10.00
2023-05-21T19:44:57.397Z,9.10
2023-05-21T19:48:00.684Z,9.60
2023-05-21T19:51:04.270Z,8.85
2023-05-21T19:54:07.898Z,8.02
2023-05-21T19:57:13.422Z,8.00
2023-05-21T20:00:17.191Z,8.98
2023-05-21T20:03:21.005Z,8.85
2023-05-21T20:06:24.382Z,9.18
2023-05-21T20:09:27.651Z,8.35
2023-05-21T20:12:32.289Z,9.45
2023-05-21T20:15:35.547Z,8.75
2023-05-21T20:18:38.800Z,10.30
2023-05-21T20:21:42.119Z,9.55
2023-05-21T20:24:45.851Z,9.10
2023-05-21T20:27:50.718Z,9.45
2023-05-21T20:30:54.594Z,10.05
2023-05-21T20:33:58.845Z,9.40
2023-05-21T20:37:02.405Z,9.30
2023-05-21T20:40:06.962Z,9.02
2023-05-21T20:43:13.749Z,9.13
2023-05-21T20:46:18.203Z,9.13
2023-05-21T20:49:24.734Z,10.18
2023-05-21T20:52:28.189Z,9.88
2023-05-21T20:55:34.585Z,11.15
2023-05-21T20:58:39.893Z,10.85
2023-05-21T21:01:43.224Z,10.57
2023-05-21T21:04:48.945Z,11.05
2023-05-21T21:07:55.512Z,10.10
2023-05-21T21:10:59.101Z,12.15
2023-05-21T21:14:03.762Z,11.00
2023-05-21T21:17:06.972Z,11.43
2023-05-21T21:20:12.655Z,10.80
2023-05-21T21:23:16.073Z,11.27
2023-05-21T21:26:19.395Z,17.17
2023-05-21T21:29:23.944Z,12.27
2023-05-21T21:32:27.435Z,10.70
2023-05-21T21:35:30.692Z,10.60
2023-05-21T21:38:33.893Z,10.50
2023-05-21T21:41:37.192Z,10.73
2023-05-21T21:44:42.138Z,10.43
2023-05-21T21:47:45.375Z,10.68
2023-05-21T21:50:48.584Z,10.33
2023-05-21T21:53:51.798Z,11.23
2023-05-21T21:56:55.097Z,11.83
2023-05-21T21:59:59.685Z,11.90
2023-05-21T22:03:03.012Z,10.70
2023-05-21T22:06:06.592Z,10.93
2023-05-21T22:09:09.902Z,10.97
2023-05-21T22:12:13.219Z,10.77
2023-05-21T22:15:23.853Z,11.63
2023-05-21T22:18:39.584Z,11.60
2023-05-21T22:21:46.276Z,10.17
2023-05-21T22:24:49.510Z,12.53
2023-05-21T22:27:52.913Z,12.40
2023-05-21T22:30:57.535Z,11.87
2023-05-21T22:34:00.846Z,14.17
2023-05-21T22:37:04.077Z,12.13
2023-05-21T22:40:08.339Z,12.30
2023-05-21T22:43:11.596Z,11.77
2023-05-21T22:46:16.224Z,12.33
2023-05-21T22:49:19.808Z,12.90
2023-05-21T22:52:23.245Z,13.27
2023-05-21T22:55:26.496Z,12.43
2023-05-21T22:58:29.715Z,11.67
2023-05-21T23:01:34.350Z,13.10
2023-05-21T23:04:43.788Z,11.27
2023-05-21T23:07:47.710Z,12.97
2023-05-21T23:10:50.935Z,12.57
2023-05-21T23:13:54.158Z,11.90
2023-05-21T23:17:01.787Z,13.03
2023-05-21T23:20:06.039Z,13.33
2023-05-21T23:23:09.295Z,13.17
2023-05-21T23:26:12.738Z,11.83
2023-05-21T23:29:15.957Z,12.63
2023-05-21T23:32:20.577Z,12.80
2023-05-21T23:35:23.799Z,13.27
2023-05-21T23:38:27.100Z,13.33
2023-05-21T23:41:30.324Z,13.40
2023-05-21T23:44:33.563Z,13.30
2023-05-21T23:47:38.204Z,12.83
2023-05-21T23:50:41.659Z,15.07
2023-05-21T23:53:44.984Z,20.30
2023-05-21T23:56:48.235Z,13.53
2023-05-21T23:59:51.489Z,12.67
